Time;durP1;ratioP1;P1;durP2;ratioP2;P2;SDS_P1;SDS_P2;PMS_P1;PMS_P2;Temp;Humidity;BMP_temperature;BMP_pressure;BME280_temperature;BME280_humidity;BME280_pressure;Samples;Min_cycle;Max_cycle;Signal;HPM_P1;HPM_P2
2021/09/06 00:00:29;;;;;;;6.38;4.80;;;20.60;62.00;;;;;;4905106;29;20020;-79
2021/09/06 00:02:55;;;;;;;6.65;4.38;;;20.60;61.40;;;;;;4920396;29;20030;-80
2021/09/06 00:05:20;;;;;;;6.30;4.57;;;20.60;61.40;;;;;;4920008;29;20518;-79
2021/09/06 00:07:47;;;;;;;6.30;4.63;;;20.60;61.40;;;;;;4936001;29;20047;-79
2021/09/06 00:10:42;;;;;;;7.07;4.80;;;20.60;61.50;;;;;;4952619;28;20063;-79
2021/09/06 00:13:10;;;;;;;6.43;4.65;;;20.60;61.60;;;;;;4935630;29;20103;-78
2021/09/06 00:15:37;;;;;;;6.15;4.28;;;20.50;61.40;;;;;;4936135;29;20040;-79
2021/09/06 00:18:04;;;;;;;7.00;4.85;;;20.50;61.50;;;;;;4920207;29;20083;-79
2021/09/06 00:20:31;;;;;;;7.30;4.97;;;20.50;61.50;;;;;;4951786;28;20044;-78
2021/09/06 00:22:57;;;;;;;6.22;4.45;;;20.50;61.60;;;;;;4935808;29;20040;-78
2021/09/06 00:25:23;;;;;;;7.45;4.70;;;20.40;61.60;;;;;;4935597;29;20027;-78
2021/09/06 00:27:50;;;;;;;6.80;5.18;;;20.40;61.60;;;;;;4919711;29;20130;-79
2021/09/06 00:30:16;;;;;;;6.93;4.78;;;20.40;61.60;;;;;;4951832;29;20489;-79
2021/09/06 00:32:42;;;;;;;6.00;4.55;;;20.40;61.60;;;;;;4919748;29;20078;-79
2021/09/06 00:35:08;;;;;;;6.78;5.18;;;20.40;61.70;;;;;;4936215;29;20031;-79
2021/09/06 00:37:34;;;;;;;6.38;4.78;;;20.40;61.70;;;;;;4936062;29;20059;-78
2021/09/06 00:40:00;;;;;;;6.65;5.03;;;20.40;61.70;;;;;;4919621;29;20078;-78
2021/09/06 00:42:26;;;;;;;7.25;5.53;;;20.30;61.70;;;;;;4936161;29;20039;-79
2021/09/06 00:44:52;;;;;;;6.20;4.82;;;20.30;61.70;;;;;;4935963;29;20035;-79
2021/09/06 00:47:18;;;;;;;7.32;5.68;;;20.30;61.70;;;;;;4919416;29;20463;-79
2021/09/06 00:49:43;;;;;;;6.82;5.13;;;20.30;61.70;;;;;;4936151;29;20054;-78
2021/09/06 00:52:09;;;;;;;6.82;5.45;;;20.20;61.70;;;;;;4929091;28;20130;-79
2021/09/06 00:54:35;;;;;;;6.85;5.60;;;20.20;61.80;;;;;;4973967;28;20085;-78
2021/09/06 00:57:01;;;;;;;6.88;4.90;;;20.20;61.80;;;;;;4973582;28;20027;-78
2021/09/06 00:59:29;;;;;;;7.47;5.20;;;20.20;61.90;;;;;;4941888;28;20039;-79
2021/09/06 01:01:55;;;;;;;7.00;5.38;;;20.20;61.90;;;;;;4925953;28;20121;-79
2021/09/06 01:04:22;;;;;;;6.55;4.85;;;20.20;62.00;;;;;;4974556;28;20049;-78
2021/09/06 01:07:26;;;;;;;7.65;5.35;;;20.10;62.00;;;;;;4923134;29;20087;-79
2021/09/06 01:10:14;;;;;;;6.70;4.93;;;20.10;62.00;;;;;;4933765;29;20048;-79
2021/09/06 01:13:00;;;;;;;6.18;4.68;;;20.00;62.00;;;;;;4947924;28;20037;-79
2021/09/06 01:15:30;;;;;;;5.93;4.55;;;20.00;62.00;;;;;;4958118;28;20414;-79
2021/09/06 01:17:56;;;;;;;7.57;5.10;;;20.00;62.10;;;;;;4926063;28;20034;-79
2021/09/06 01:20:25;;;;;;;7.00;5.13;;;20.00;62.10;;;;;;4926555;28;20031;-80
2021/09/06 01:22:56;;;;;;;6.40;5.15;;;19.90;62.10;;;;;;4927229;28;20061;-79
2021/09/06 01:25:30;;;;;;;6.78;5.57;;;19.90;62.10;;;;;;4957898;28;20482;-79
2021/09/06 01:27:57;;;;;;;6.80;5.22;;;19.90;62.20;;;;;;4941650;28;20045;-79
2021/09/06 01:30:26;;;;;;;7.40;5.40;;;19.90;62.20;;;;;;4941594;28;20476;-79
2021/09/06 01:32:52;;;;;;;6.25;4.70;;;19.90;62.20;;;;;;4926367;28;20027;-79
2021/09/06 01:35:18;;;;;;;7.57;5.10;;;19.90;62.30;;;;;;4925458;28;20046;-78
2021/09/06 01:37:50;;;;;;;6.45;4.70;;;19.80;62.20;;;;;;4957671;28;20023;-78
2021/09/06 01:40:18;;;;;;;6.68;4.93;;;19.80;62.90;;;;;;4925760;28;20043;-79
2021/09/06 01:42:45;;;;;;;6.45;4.80;;;19.80;62.20;;;;;;4957437;28;20066;-80
2021/09/06 01:45:11;;;;;;;5.95;4.55;;;19.80;62.30;;;;;;4942300;28;20027;-79
2021/09/06 01:47:37;;;;;;;6.95;4.88;;;19.80;62.30;;;;;;4957249;28;20069;-79
2021/09/06 01:50:05;;;;;;;6.57;5.18;;;19.80;62.30;;;;;;4960286;28;20046;-79
2021/09/06 01:52:39;;;;;;;;;;;19.70;62.30;;;;;;4961388;28;20051;-79
2021/09/06 01:55:06;;;;;;;7.30;5.05;;;19.70;62.20;;;;;;4977832;28;20056;-78
2021/09/06 01:57:35;;;;;;;6.97;5.15;;;19.70;62.20;;;;;;4946189;28;20030;-78
2021/09/06 02:00:04;;;;;;;6.50;5.07;;;19.60;62.30;;;;;;4962583;28;20035;-78
2021/09/06 02:02:39;;;;;;;7.43;5.07;;;19.60;62.40;;;;;;4962684;28;20040;-78
2021/09/06 02:05:07;;;;;;;7.72;5.30;;;19.60;62.50;;;;;;4960941;28;20042;-78
2021/09/06 02:07:34;;;;;;;7.65;5.47;;;19.60;62.50;;;;;;4977996;28;20030;-77
2021/09/06 02:10:00;;;;;;;7.65;5.63;;;19.50;62.40;;;;;;4960659;28;20045;-78
2021/09/06 02:12:26;;;;;;;7.63;5.22;;;19.50;62.50;;;;;;4944589;28;20038;-78
2021/09/06 02:14:52;;;;;;;7.32;5.38;;;19.50;62.50;;;;;;4944761;28;20066;-79
2021/09/06 02:17:20;;;;;;;6.75;5.03;;;19.50;62.50;;;;;;4945267;28;20035;-78
2021/09/06 02:19:47;;;;;;;6.70;4.85;;;19.50;62.50;;;;;;4960289;28;20035;-78
2021/09/06 02:22:13;;;;;;;7.10;5.28;;;19.50;62.50;;;;;;4928646;28;20041;-78
2021/09/06 02:24:53;;;;;;;7.00;5.15;;;19.40;62.50;;;;;;4946570;28;20038;-78
2021/09/06 02:27:23;;;;;;;7.18;5.82;;;19.40;62.50;;;;;;4960824;28;20035;-78
2021/09/06 02:29:51;;;;;;;7.43;5.65;;;19.40;62.60;;;;;;4928771;28;20046;-79
2021/09/06 02:32:21;;;;;;;7.95;5.55;;;19.40;62.60;;;;;;4944775;28;20557;-78
2021/09/06 02:35:02;;;;;;;7.20;5.57;;;19.40;62.60;;;;;;4948458;28;20023;-79
2021/09/06 02:37:30;;;;;;;8.10;5.95;;;19.30;62.60;;;;;;4928564;28;20395;-79
2021/09/06 02:39:56;;;;;;;6.95;5.32;;;19.30;62.60;;;;;;4959562;28;20034;-78
2021/09/06 02:42:22;;;;;;;7.57;5.57;;;19.30;62.60;;;;;;4943902;28;20027;-78
2021/09/06 02:44:48;;;;;;;7.78;5.75;;;19.20;62.60;;;;;;4928332;28;20035;-79
2021/09/06 02:47:14;;;;;;;7.22;5.57;;;19.30;62.70;;;;;;4943836;28;20027;-79
2021/09/06 02:49:40;;;;;;;7.53;5.53;;;19.20;62.60;;;;;;4959773;28;20039;-79
2021/09/06 02:52:10;;;;;;;7.43;5.22;;;19.20;62.70;;;;;;4934127;29;20060;-79
2021/09/06 02:54:36;;;;;;;7.10;5.55;;;19.20;62.70;;;;;;4922263;29;20044;-78
2021/09/06 02:57:03;;;;;;;8.05;5.78;;;19.20;62.70;;;;;;4921931;29;20039;-78
2021/09/06 02:59:29;;;;;;;7.57;5.43;;;19.10;62.70;;;;;;4937135;29;20032;-78
2021/09/06 03:01:56;;;;;;;6.68;5.40;;;19.10;62.70;;;;;;4921513;29;20048;-78
2021/09/06 03:04:21;;;;;;;7.60;5.68;;;19.10;62.70;;;;;;4905646;29;20114;-79
2021/09/06 03:06:48;;;;;;;7.25;5.40;;;19.10;62.80;;;;;;4905464;29;20035;-78
2021/09/06 03:09:16;;;;;;;7.43;5.40;;;19.00;62.80;;;;;;4906228;29;20036;-78
2021/09/06 03:11:42;;;;;;;7.63;5.47;;;19.00;62.80;;;;;;4890065;29;20046;-79
2021/09/06 03:14:08;;;;;;;7.63;5.50;;;19.00;62.80;;;;;;4889975;29;20032;-80
2021/09/06 03:16:34;;;;;;;8.32;5.93;;;19.00;62.90;;;;;;4905719;29;20055;-79
2021/09/06 03:19:00;;;;;;;8.05;5.55;;;19.00;62.90;;;;;;4905352;29;20494;-79
2021/09/06 03:21:38;;;;;;;7.93;5.85;;;19.00;62.90;;;;;;4909096;29;20043;-78
2021/09/06 03:24:08;;;;;;;7.60;5.13;;;19.00;62.90;;;;;;4893522;29;20036;-79
2021/09/06 03:26:34;;;;;;;6.75;5.35;;;18.90;62.90;;;;;;4924473;29;20051;-79
2021/09/06 03:29:00;;;;;;;7.30;5.43;;;18.90;63.00;;;;;;4924595;29;20036;-81
2021/09/06 03:31:27;;;;;;;7.15;5.43;;;18.80;62.90;;;;;;4908630;29;20035;-78
2021/09/06 03:33:55;;;;;;;7.88;5.63;;;18.80;63.00;;;;;;4910483;29;20035;-77
2021/09/06 03:36:20;;;;;;;7.32;5.35;;;18.80;63.00;;;;;;4921548;29;20039;-79
2021/09/06 03:38:48;;;;;;;6.25;4.93;;;18.80;63.10;;;;;;4920722;29;20051;-79
2021/09/06 03:41:14;;;;;;;7.75;5.35;;;18.80;63.10;;;;;;4921115;29;20377;-78
2021/09/06 03:43:41;;;;;;;6.85;5.38;;;18.70;63.10;;;;;;4920863;29;20035;-78
2021/09/06 03:46:07;;;;;;;6.75;4.72;;;18.70;63.10;;;;;;4936333;29;20040;-79
2021/09/06 03:48:35;;;;;;;6.72;5.10;;;18.70;63.10;;;;;;4906022;29;20028;-80
2021/09/06 03:51:06;;;;;;;7.60;5.40;;;18.70;63.80;;;;;;4890901;29;20067;-79
2021/09/06 03:53:32;;;;;;;6.85;5.18;;;18.70;63.20;;;;;;4935732;29;20059;-78
2021/09/06 03:55:58;;;;;;;7.15;5.43;;;18.70;63.20;;;;;;4952008;28;20099;-79
2021/09/06 03:58:25;;;;;;;7.50;5.65;;;18.60;63.20;;;;;;4936303;29;20036;-78
2021/09/06 04:00:51;;;;;;;8.02;6.00;;;18.60;63.20;;;;;;4936441;29;20404;-78
2021/09/06 04:03:19;;;;;;;7.18;5.38;;;18.60;63.20;;;;;;4937040;29;20028;-78
2021/09/06 04:05:46;;;;;;;7.43;4.72;;;18.60;63.20;;;;;;4936673;29;20043;-78
2021/09/06 04:08:11;;;;;;;7.35;5.40;;;18.50;63.30;;;;;;4920950;29;20400;-79
2021/09/06 04:10:37;;;;;;;7.47;5.65;;;18.50;63.30;;;;;;4920293;29;20527;-79
2021/09/06 04:13:03;;;;;;;8.00;5.82;;;18.50;63.30;;;;;;4935768;29;20034;-79
2021/09/06 04:15:29;;;;;;;7.70;5.43;;;18.50;63.40;;;;;;4920204;29;20338;-79
2021/09/06 04:17:56;;;;;;;7.47;5.40;;;18.50;64.10;;;;;;4951684;29;20036;-78
2021/09/06 04:20:23;;;;;;;7.95;5.60;;;18.50;63.40;;;;;;4919934;29;20486;-78
2021/09/06 04:22:49;;;;;;;7.85;6.00;;;18.40;63.40;;;;;;4919990;29;20087;-78
2021/09/06 04:25:16;;;;;;;7.35;5.78;;;18.40;63.40;;;;;;4920912;29;20036;-78
2021/09/06 04:27:43;;;;;;;7.82;5.65;;;18.40;63.40;;;;;;4904483;29;20047;-79
2021/09/06 04:30:13;;;;;;;7.38;5.82;;;18.40;63.40;;;;;;4936405;29;20043;-79
2021/09/06 04:32:41;;;;;;;8.05;5.43;;;18.40;63.50;;;;;;4920893;29;20143;-81
2021/09/06 04:35:07;;;;;;;7.93;5.90;;;18.30;63.40;;;;;;4951712;28;20114;-79
2021/09/06 04:37:34;;;;;;;8.15;5.55;;;18.30;63.50;;;;;;4951153;29;20488;-78
2021/09/06 04:40:03;;;;;;;7.28;5.35;;;18.30;63.50;;;;;;4951627;28;20035;-79
2021/09/06 04:42:32;;;;;;;7.97;5.75;;;18.30;63.60;;;;;;4905513;29;20063;-79
2021/09/06 04:44:59;;;;;;;8.07;5.78;;;18.30;63.60;;;;;;4951318;28;20036;-79
2021/09/06 04:47:26;;;;;;;8.75;6.20;;;18.20;63.60;;;;;;4936031;29;20131;-79
2021/09/06 04:49:51;;;;;;;8.15;6.47;;;18.20;63.60;;;;;;4935406;29;20123;-80
2021/09/06 04:52:18;;;;;;;7.60;5.50;;;18.20;63.60;;;;;;4962475;28;20057;-79
2021/09/06 04:54:44;;;;;;;7.55;5.53;;;18.20;63.70;;;;;;4957636;28;20106;-80
2021/09/06 04:57:10;;;;;;;8.18;5.78;;;18.20;63.70;;;;;;4942334;28;20459;-80
2021/09/06 04:59:36;;;;;;;8.25;5.63;;;18.10;63.70;;;;;;4941643;28;20042;-79
2021/09/06 05:02:02;;;;;;;7.22;5.30;;;18.10;63.70;;;;;;4957468;28;20030;-79
2021/09/06 05:04:27;;;;;;;7.72;6.13;;;18.20;63.80;;;;;;4957710;28;20584;-79
2021/09/06 05:06:54;;;;;;;7.65;5.60;;;18.10;63.80;;;;;;4925815;28;20092;-79
2021/09/06 05:09:21;;;;;;;7.43;5.60;;;18.10;63.80;;;;;;4957689;28;20134;-79
2021/09/06 05:11:49;;;;;;;7.13;5.13;;;18.10;63.90;;;;;;4941868;28;20031;-80
2021/09/06 05:14:15;;;;;;;7.47;5.72;;;18.00;63.80;;;;;;4958226;28;20047;-80
2021/09/06 05:16:42;;;;;;;7.57;5.43;;;18.00;63.90;;;;;;4941865;28;20094;-82
2021/09/06 05:19:08;;;;;;;7.93;5.63;;;18.00;63.90;;;;;;4941361;28;20428;-80
2021/09/06 05:21:34;;;;;;;8.10;6.10;;;18.00;63.90;;;;;;4925668;28;20039;-80
2021/09/06 05:24:03;;;;;;;7.55;5.80;;;18.00;63.90;;;;;;4943242;28;20031;-80
2021/09/06 05:26:29;;;;;;;7.28;5.63;;;18.00;64.00;;;;;;4961301;28;20037;-81
2021/09/06 05:28:55;;;;;;;7.28;5.38;;;18.00;64.00;;;;;;4929500;28;20039;-81
2021/09/06 05:31:21;;;;;;;8.27;5.75;;;17.90;64.00;;;;;;4945650;28;20038;-78
2021/09/06 05:33:47;;;;;;;7.20;5.68;;;17.90;64.00;;;;;;4961138;28;20356;-79
2021/09/06 05:36:15;;;;;;;7.90;5.95;;;17.90;64.10;;;;;;4929294;28;20077;-77
2021/09/06 05:38:43;;;;;;;7.78;5.60;;;17.90;64.10;;;;;;4945836;28;20158;-79
2021/09/06 05:41:26;;;;;;;7.80;5.47;;;17.90;64.10;;;;;;4947342;28;20023;-79
2021/09/06 05:43:52;;;;;;;7.88;5.68;;;17.90;64.10;;;;;;4929162;28;20046;-78
2021/09/06 05:46:19;;;;;;;7.88;5.82;;;17.90;64.20;;;;;;4945135;28;20046;-78
2021/09/06 05:48:46;;;;;;;8.00;5.97;;;17.80;64.20;;;;;;4960893;28;20468;-79
2021/09/06 05:51:12;;;;;;;7.88;5.45;;;17.80;64.20;;;;;;4944986;28;20162;-79
2021/09/06 05:53:57;;;;;;;7.30;5.70;;;17.80;64.20;;;;;;4959809;28;20113;-78
2021/09/06 05:56:23;;;;;;;8.15;5.65;;;17.80;64.20;;;;;;4944567;28;20297;-78
2021/09/06 05:58:51;;;;;;;7.97;5.57;;;17.80;64.30;;;;;;4928134;28;20042;-79
2021/09/06 06:01:18;;;;;;;7.70;5.75;;;17.80;65.00;;;;;;4943622;28;20054;-78
2021/09/06 06:03:44;;;;;;;7.78;5.78;;;17.80;64.40;;;;;;4927753;28;20033;-78
2021/09/06 06:06:16;;;;;;;9.00;6.13;;;17.80;64.40;;;;;;4928972;28;20126;-78
2021/09/06 06:08:43;;;;;;;7.90;5.55;;;17.80;64.40;;;;;;4959300;28;20043;-79
2021/09/06 06:11:09;;;;;;;8.27;5.95;;;17.70;64.40;;;;;;4959318;28;20106;-78
2021/09/06 06:13:35;;;;;;;8.43;5.60;;;17.80;64.50;;;;;;4959251;28;20463;-78
2021/09/06 06:16:01;;;;;;;8.50;6.15;;;17.70;64.50;;;;;;4928062;28;20130;-81
2021/09/06 06:18:30;;;;;;;8.73;6.10;;;17.70;64.50;;;;;;4959916;28;20031;-78
2021/09/06 06:20:56;;;;;;;7.93;6.20;;;17.80;64.60;;;;;;4943185;28;20030;-77
2021/09/06 06:23:37;;;;;;;8.63;6.50;;;17.70;64.60;;;;;;4947297;28;20031;-77
2021/09/06 06:26:09;;;;;;;9.65;6.25;;;17.70;65.20;;;;;;4959667;28;20045;-77
2021/09/06 06:28:35;;;;;;;8.32;6.10;;;17.70;64.60;;;;;;4927489;28;20035;-76
2021/09/06 06:31:01;;;;;;;8.18;5.63;;;17.70;64.60;;;;;;4928044;28;20053;-77
2021/09/06 06:33:29;;;;;;;9.90;6.45;;;17.70;64.70;;;;;;4942907;28;20039;-76
2021/09/06 06:36:01;;;;;;;8.05;6.00;;;17.70;64.70;;;;;;4942951;28;20097;-77
2021/09/06 06:38:32;;;;;;;7.88;5.88;;;17.70;64.80;;;;;;4942960;28;20435;-77
2021/09/06 06:40:58;;;;;;;8.63;6.18;;;17.70;64.80;;;;;;4942845;28;20031;-77
2021/09/06 06:43:32;;;;;;;;;;;17.70;64.80;;;;;;4944762;28;20089;-78
2021/09/06 06:45:58;;;;;;;7.10;4.72;;;17.70;64.60;;;;;;4959062;28;19918;-78
2021/09/06 06:48:27;;;;;;;8.18;5.70;;;17.70;64.60;;;;;;4943903;28;20046;-77
2021/09/06 06:50:54;;;;;;;7.60;5.65;;;17.70;64.80;;;;;;4935773;29;20130;-77
2021/09/06 06:53:20;;;;;;;7.75;5.57;;;17.70;64.90;;;;;;4896754;29;1164559;-77
2021/09/06 06:55:49;;;;;;;7.85;5.68;;;17.70;64.90;;;;;;4936056;29;20054;-77
2021/09/06 06:58:15;;;;;;;8.85;5.93;;;17.70;64.90;;;;;;4936366;29;20044;-77
2021/09/06 07:00:41;;;;;;;7.82;5.78;;;17.70;64.90;;;;;;4920371;29;20126;-80
2021/09/06 07:03:07;;;;;;;7.95;5.80;;;17.70;65.30;;;;;;4936681;29;20040;-77
2021/09/06 07:05:33;;;;;;;9.30;6.45;;;17.70;65.00;;;;;;4935831;29;20103;-79
2021/09/06 07:07:59;;;;;;;8.20;6.00;;;17.80;65.10;;;;;;4935962;29;20067;-78
2021/09/06 07:10:25;;;;;;;8.07;5.85;;;17.70;65.00;;;;;;4936661;29;20440;-79
2021/09/06 07:12:53;;;;;;;8.32;5.78;;;17.80;65.10;;;;;;4935888;29;20031;-78
2021/09/06 07:15:19;;;;;;;7.45;5.75;;;17.80;65.10;;;;;;4920141;29;20040;-80
2021/09/06 07:17:46;;;;;;;10.00;7.13;;;17.80;65.20;;;;;;4936022;29;20081;-79
2021/09/06 07:20:12;;;;;;;9.50;6.75;;;17.80;65.20;;;;;;4936127;29;20067;-80
2021/09/06 07:22:38;;;;;;;9.20;6.80;;;17.80;65.30;;;;;;4935714;29;20082;-79
2021/09/06 07:25:05;;;;;;;8.52;6.10;;;17.80;65.30;;;;;;4935816;29;20476;-80
2021/09/06 07:27:31;;;;;;;9.27;6.57;;;17.80;65.40;;;;;;4942496;28;20077;-80
2021/09/06 07:29:57;;;;;;;9.35;6.30;;;17.80;65.50;;;;;;4942891;28;20045;-79
2021/09/06 07:32:23;;;;;;;8.35;6.25;;;17.80;65.40;;;;;;4942838;28;20035;-80
2021/09/06 07:34:49;;;;;;;7.32;5.43;;;17.90;65.50;;;;;;4943249;28;20038;-80
2021/09/06 07:37:17;;;;;;;7.85;5.72;;;17.90;65.50;;;;;;4958969;28;20035;-80
2021/09/06 07:39:46;;;;;;;7.38;5.72;;;17.90;65.40;;;;;;4958767;28;20037;-80
2021/09/06 07:42:13;;;;;;;8.40;6.22;;;17.90;65.50;;;;;;4959800;28;20530;-80
2021/09/06 07:44:40;;;;;;;8.85;6.72;;;17.90;65.40;;;;;;4942589;28;20027;-79
2021/09/06 07:47:06;;;;;;;8.23;6.18;;;17.90;65.40;;;;;;4958129;28;20059;-79
2021/09/06 07:49:32;;;;;;;8.73;6.15;;;17.90;65.40;;;;;;4926937;28;20090;-80
2021/09/06 07:51:59;;;;;;;8.80;6.70;;;17.90;65.40;;;;;;4926954;28;20047;-79
2021/09/06 07:54:25;;;;;;;7.43;6.03;;;18.00;65.60;;;;;;4959368;28;20376;-79
2021/09/06 07:56:54;;;;;;;8.15;5.90;;;18.00;65.50;;;;;;4958750;28;20038;-80
2021/09/06 07:59:21;;;;;;;8.85;6.40;;;18.00;65.60;;;;;;4959274;28;20448;-79
2021/09/06 08:01:47;;;;;;;9.05;6.55;;;18.10;65.60;;;;;;4942838;28;20031;-80
2021/09/06 08:04:14;;;;;;;8.70;6.18;;;18.00;65.60;;;;;;4958799;28;20048;-81
2021/09/06 08:06:40;;;;;;;8.80;6.50;;;18.00;65.60;;;;;;4959613;28;20039;-80
2021/09/06 08:09:07;;;;;;;8.25;6.10;;;18.10;65.60;;;;;;4944037;28;20043;-81
2021/09/06 08:11:34;;;;;;;8.93;6.55;;;18.10;65.60;;;;;;4958889;28;20035;-81
2021/09/06 08:14:00;;;;;;;8.20;5.80;;;18.10;65.60;;;;;;4958534;28;20034;-82
2021/09/06 08:16:26;;;;;;;9.10;6.63;;;18.20;65.70;;;;;;4942698;28;20039;-82
2021/09/06 08:18:52;;;;;;;8.68;6.50;;;18.20;65.70;;;;;;4959059;28;20027;-81
2021/09/06 08:21:19;;;;;;;9.10;6.35;;;18.20;65.70;;;;;;4942242;28;20041;-81
2021/09/06 08:23:45;;;;;;;8.73;7.00;;;18.30;65.70;;;;;;4958576;28;20031;-81
2021/09/06 08:26:11;;;;;;;8.02;6.10;;;18.30;65.70;;;;;;4942335;28;20063;-79
2021/09/06 08:28:37;;;;;;;9.57;6.72;;;18.30;65.70;;;;;;4926755;28;20081;-80
2021/09/06 08:31:03;;;;;;;9.02;6.45;;;18.30;65.70;;;;;;4958449;28;20460;-79
2021/09/06 08:33:30;;;;;;;8.73;6.95;;;18.40;65.70;;;;;;4942337;28;20031;-80
2021/09/06 08:35:58;;;;;;;8.00;6.28;;;18.40;65.70;;;;;;4958134;28;20126;-79
2021/09/06 08:38:24;;;;;;;8.45;6.45;;;18.40;65.70;;;;;;4958142;28;20125;-79
2021/09/06 08:40:56;;;;;;;9.10;6.65;;;18.40;65.70;;;;;;4958177;28;20555;-79
2021/09/06 08:43:22;;;;;;;8.10;5.95;;;18.50;65.70;;;;;;4942268;28;20035;-80
2021/09/06 08:45:48;;;;;;;8.82;6.40;;;18.50;65.60;;;;;;4957717;28;20402;-80
2021/09/06 08:48:13;;;;;;;8.43;5.82;;;18.60;65.60;;;;;;4926263;28;20047;-80
2021/09/06 08:50:42;;;;;;;9.25;6.22;;;18.60;65.50;;;;;;4957929;28;20058;-80
2021/09/06 08:53:09;;;;;;;8.43;6.25;;;18.70;65.40;;;;;;4926551;28;20057;-80
2021/09/06 08:55:41;;;;;;;8.55;6.00;;;18.80;65.50;;;;;;4942078;28;20043;-80
2021/09/06 08:58:07;;;;;;;7.97;5.82;;;18.80;65.30;;;;;;4957638;28;20125;-80
2021/09/06 09:00:33;;;;;;;10.30;6.70;;;18.80;65.20;;;;;;4957774;28;20494;-80
2021/09/06 09:03:24;;;;;;;8.30;5.88;;;18.90;65.20;;;;;;4945152;28;20062;-80
2021/09/06 09:06:12;;;;;;;8.20;6.05;;;19.00;65.10;;;;;;4951606;28;20487;-81
2021/09/06 09:08:51;;;;;;;7.32;5.80;;;19.00;64.90;;;;;;4944069;28;20038;-80
2021/09/06 09:11:37;;;;;;;7.80;5.75;;;19.10;65.00;;;;;;4946747;28;20047;-80
2021/09/06 09:14:21;;;;;;;8.60;6.13;;;19.20;64.90;;;;;;4957551;28;20042;-80
2021/09/06 09:17:12;;;;;;;8.05;5.63;;;19.30;64.80;;;;;;4932564;28;20427;-80
2021/09/06 09:20:06;;;;;;;7.50;5.22;;;19.30;64.70;;;;;;4945023;28;20034;-81
2021/09/06 09:23:04;;;;;;;8.20;5.78;;;19.40;64.70;;;;;;4918768;28;20039;-80
2021/09/06 09:25:44;;;;;;;7.00;5.30;;;19.40;64.60;;;;;;4943857;28;20026;-80
2021/09/06 09:28:37;;;;;;;6.85;5.13;;;19.60;64.70;;;;;;4944814;28;20042;-81
2021/09/06 09:31:29;;;;;;;6.53;4.72;;;19.60;64.60;;;;;;4944992;28;20035;-80
2021/09/06 09:34:24;;;;;;;7.68;5.28;;;19.70;64.50;;;;;;4944989;28;20035;-80
2021/09/06 09:37:12;;;;;;;8.00;5.78;;;19.80;64.40;;;;;;4973564;28;20038;-80
2021/09/06 09:39:38;;;;;;;7.85;5.47;;;19.90;64.50;;;;;;4973242;28;20062;-80
2021/09/06 09:42:08;;;;;;;7.70;5.25;;;20.00;64.60;;;;;;4925866;28;20041;-80
2021/09/06 09:44:44;;;;;;;7.18;5.30;;;20.10;64.70;;;;;;4974436;28;20023;-81
2021/09/06 09:47:26;;;;;;;8.15;6.30;;;20.20;64.90;;;;;;4956834;28;20030;-80
2021/09/06 09:49:54;;;;;;;7.68;5.38;;;20.20;64.70;;;;;;4957573;28;20101;-80
2021/09/06 09:52:23;;;;;;;7.65;5.22;;;20.30;64.90;;;;;;4941002;28;20162;-80
2021/09/06 09:54:53;;;;;;;7.43;5.53;;;20.40;65.00;;;;;;4957126;28;20023;-80
2021/09/06 09:57:25;;;;;;;8.70;5.68;;;20.50;65.00;;;;;;4941410;28;20042;-81
2021/09/06 09:59:52;;;;;;;6.72;5.18;;;20.60;65.00;;;;;;4974218;28;20027;-80
2021/09/06 10:02:31;;;;;;;7.55;5.53;;;20.70;65.10;;;;;;4941389;28;20027;-80
2021/09/06 10:05:02;;;;;;;7.40;5.63;;;20.80;65.30;;;;;;4957337;28;20031;-81
2021/09/06 10:07:35;;;;;;;7.30;5.18;;;20.90;65.20;;;;;;4956617;28;20035;-80
2021/09/06 10:10:17;;;;;;;6.70;5.13;;;21.00;65.40;;;;;;4943002;28;20038;-81
2021/09/06 10:13:00;;;;;;;7.60;5.35;;;21.10;65.40;;;;;;4944754;28;20027;-80
2021/09/06 10:15:26;;;;;;;7.20;5.15;;;21.20;65.40;;;;;;4944697;28;20026;-80
2021/09/06 10:17:52;;;;;;;7.20;5.45;;;21.20;65.30;;;;;;4944354;28;20387;-80
2021/09/06 10:20:24;;;;;;;7.05;4.97;;;21.30;65.50;;;;;;4960435;28;20035;-81
2021/09/06 10:23:09;;;;;;;7.78;5.30;;;21.40;65.70;;;;;;4977463;28;20069;-81
2021/09/06 10:25:42;;;;;;;7.25;5.03;;;21.50;65.80;;;;;;4944487;28;20035;-80
2021/09/06 10:28:13;;;;;;;7.32;5.13;;;21.60;65.80;;;;;;4960908;28;20073;-81
2021/09/06 10:30:41;;;;;;;7.00;4.97;;;21.70;65.90;;;;;;4944375;28;20031;-81
2021/09/06 10:33:21;;;;;;;7.78;5.68;;;21.90;66.10;;;;;;4944098;28;20035;-80
2021/09/06 10:35:49;;;;;;;6.35;4.90;;;21.90;66.20;;;;;;4978135;28;20031;-81
2021/09/06 10:38:16;;;;;;;6.18;4.40;;;22.00;66.20;;;;;;4944661;28;20027;-81
2021/09/06 10:40:43;;;;;;;6.40;4.93;;;22.10;66.20;;;;;;4961001;28;20066;-81
2021/09/06 10:43:23;;;;;;;6.65;5.13;;;22.20;66.30;;;;;;4944219;28;20375;-81
2021/09/06 10:45:51;;;;;;;7.20;5.20;;;22.40;66.50;;;;;;4960470;28;20035;-80
2021/09/06 10:48:24;;;;;;;6.50;4.75;;;22.40;66.10;;;;;;4960837;28;20038;-81
2021/09/06 10:50:52;;;;;;;6.53;4.55;;;22.50;66.00;;;;;;4944662;28;20364;-81
2021/09/06 10:53:21;;;;;;;7.25;4.90;;;22.60;65.80;;;;;;4943772;28;20054;-80
2021/09/06 10:55:51;;;;;;;5.40;4.10;;;22.70;65.90;;;;;;4977072;28;20109;-80
2021/09/06 10:58:21;;;;;;;7.10;4.80;;;22.80;65.80;;;;;;4941201;28;20034;-80
2021/09/06 11:00:56;;;;;;;5.55;4.05;;;22.90;65.80;;;;;;4944378;28;20073;-80
2021/09/06 11:03:24;;;;;;;6.03;4.40;;;23.00;65.80;;;;;;4943450;28;20038;-81
2021/09/06 11:05:57;;;;;;;5.55;4.07;;;23.00;65.70;;;;;;4943911;28;20530;-81
2021/09/06 11:08:41;;;;;;;6.05;3.97;;;23.10;65.80;;;;;;4959880;28;20468;-81
2021/09/06 11:11:09;;;;;;;5.37;4.00;;;23.20;66.00;;;;;;4928470;28;20109;-80
2021/09/06 11:13:40;;;;;;;5.90;4.18;;;23.30;65.80;;;;;;4976671;28;20077;-81
2021/09/06 11:16:10;;;;;;;5.55;3.90;;;23.30;65.90;;;;;;4959488;28;20030;-80
2021/09/06 11:18:39;;;;;;;5.95;4.15;;;23.40;66.00;;;;;;4943689;28;20066;-80
2021/09/06 11:21:06;;;;;;;5.80;3.92;;;23.50;66.10;;;;;;4958633;28;20023;-81
2021/09/06 11:23:33;;;;;;;5.30;3.90;;;23.50;66.10;;;;;;4958844;28;20033;-80
2021/09/06 11:26:00;;;;;;;5.45;4.10;;;23.60;66.30;;;;;;4977051;28;20070;-82
2021/09/06 11:28:28;;;;;;;5.45;3.92;;;23.60;66.40;;;;;;4943238;28;20384;-82
2021/09/06 11:30:54;;;;;;;5.78;3.90;;;23.70;66.50;;;;;;4958899;28;20083;-81
2021/09/06 11:33:20;;;;;;;4.90;3.58;;;23.70;66.60;;;;;;4959102;28;20035;-81
2021/09/06 11:35:47;;;;;;;5.53;4.00;;;23.80;66.90;;;;;;4958867;28;20035;-81
2021/09/06 11:38:14;;;;;;;5.05;4.00;;;23.80;67.10;;;;;;4958979;28;20042;-81
2021/09/06 11:40:42;;;;;;;5.20;3.92;;;23.90;67.20;;;;;;4942769;28;20088;-81
2021/09/06 11:43:09;;;;;;;4.80;3.75;;;23.90;67.30;;;;;;4975947;28;20045;-81
2021/09/06 11:45:36;;;;;;;5.32;3.88;;;24.00;67.50;;;;;;4942560;28;20026;-81
2021/09/06 11:48:04;;;;;;;5.20;3.90;;;24.00;67.50;;;;;;4975784;28;20035;-81
2021/09/06 11:50:35;;;;;;;5.55;4.07;;;24.00;67.60;;;;;;4943014;28;20038;-81
2021/09/06 11:53:13;;;;;;;5.38;4.10;;;24.00;67.80;;;;;;4960018;28;20047;-81
2021/09/06 11:55:55;;;;;;;5.30;3.85;;;24.10;67.90;;;;;;4960268;28;20046;-81
2021/09/06 11:58:26;;;;;;;5.50;3.95;;;24.10;68.10;;;;;;4943529;28;20399;-80
2021/09/06 12:00:53;;;;;;;5.68;4.18;;;24.20;68.20;;;;;;4976788;28;20037;-81
2021/09/06 12:03:27;;;;;;;6.47;4.13;;;24.20;68.30;;;;;;4958770;28;20111;-81
2021/09/06 12:06:03;;;;;;;5.22;4.00;;;24.20;68.60;;;;;;4958324;28;20031;-81
2021/09/06 12:08:30;;;;;;;5.13;3.80;;;24.20;68.60;;;;;;4959163;28;20026;-81
2021/09/06 12:11:05;;;;;;;4.40;3.28;;;24.20;68.60;;;;;;4959014;28;20035;-80
2021/09/06 12:13:34;;;;;;;5.03;3.75;;;24.20;69.00;;;;;;4975293;28;20030;-79
2021/09/06 12:16:04;;;;;;;5.60;4.28;;;24.30;68.90;;;;;;4959096;28;20039;-80
2021/09/06 12:18:37;;;;;;;5.28;4.10;;;24.30;68.80;;;;;;4958006;28;20030;-80
2021/09/06 12:21:18;;;;;;;5.45;4.20;;;24.40;68.80;;;;;;4958129;28;20061;-79
2021/09/06 12:23:47;;;;;;;5.35;3.80;;;24.30;68.80;;;;;;4926349;28;20046;-80
2021/09/06 12:26:14;;;;;;;5.20;3.75;;;24.40;68.70;;;;;;4942033;28;20035;-79
2021/09/06 12:28:51;;;;;;;5.10;3.72;;;24.40;68.70;;;;;;4942970;28;20034;-80
2021/09/06 12:31:18;;;;;;;6.30;3.80;;;24.40;68.70;;;;;;4942304;28;20070;-79
2021/09/06 12:33:46;;;;;;;6.43;4.55;;;24.40;68.60;;;;;;4941628;28;20065;-79
2021/09/06 12:36:12;;;;;;;5.40;4.13;;;24.40;68.50;;;;;;4975943;28;20065;-79
2021/09/06 12:38:38;;;;;;;5.88;4.30;;;24.50;68.50;;;;;;4957800;28;20062;-79
2021/09/06 12:41:04;;;;;;;5.45;4.18;;;24.50;68.40;;;;;;4941549;28;20035;-80
2021/09/06 12:43:30;;;;;;;5.30;4.05;;;24.50;68.40;;;;;;4941773;28;20066;-79
2021/09/06 12:51:20;;;;;;;5.72;4.32;;;24.60;68.40;;;;;;5241119;23;20050;-80
2021/09/06 12:53:46;;;;;;;5.72;4.18;;;24.60;68.90;;;;;;4922244;28;20371;-78
2021/09/06 12:56:11;;;;;;;5.60;4.30;;;24.60;68.20;;;;;;4938784;28;20043;-77
2021/09/06 12:58:37;;;;;;;6.10;4.45;;;24.70;68.10;;;;;;4941571;28;20109;-78
2021/09/06 13:01:03;;;;;;;6.07;4.43;;;24.70;67.90;;;;;;4938902;28;20474;-78
2021/09/06 13:03:29;;;;;;;6.30;4.55;;;24.70;67.80;;;;;;4954627;28;20042;-77